Time;durP1;ratioP1;P1;durP2;ratioP2;P2;SDS_P1;SDS_P2;PMS_P1;PMS_P2;Temp;Humidity;BMP_temperature;BMP_pressure;BME280_temperature;BME280_humidity;BME280_pressure;Samples;Min_cycle;Max_cycle;Signal;HPM_P1;HPM_P2
2022/10/09 00:00:28;;;;;;;;;;;;;;;10.30;94.17;100787.89;1441425;90;20405;-78
2022/10/09 00:02:55;;;;;;;;;;;;;;;10.23;94.66;100792.50;1445353;90;20287;-78
2022/10/09 00:05:22;;;;;;;;;;;;;;;10.19;94.42;100802.52;1443498;90;20315;-78
2022/10/09 00:07:49;;;;;;;;;;;;;;;10.18;93.09;100795.53;1438598;90;20294;-77
2022/10/09 00:10:16;;;;;;;;;;;;;;;10.14;94.71;100796.80;1434149;91;20428;-76
2022/10/09 00:12:43;;;;;;;;;;;;;;;10.10;93.77;100794.91;1424141;91;20433;-77
2022/10/09 00:15:10;;;;;;;;;;;;;;;10.07;93.49;100795.19;1443303;90;20324;-77
2022/10/09 00:17:37;;;;;;;;;;;;;;;10.06;94.01;100784.73;1437111;90;20980;-77
2022/10/09 00:20:05;;;;;;;;;;;;;;;10.05;93.26;100789.19;1440550;91;20372;-77
2022/10/09 00:22:32;;;;;;;;;;;;;;;10.02;93.05;100785.49;1438494;91;20314;-77
2022/10/09 00:24:59;;;;;;;;;;;;;;;10.01;93.26;100792.22;1443396;91;20499;-77
2022/10/09 00:27:26;;;;;;;;;;;;;;;9.97;92.83;100789.02;1437493;91;20364;-77
2022/10/09 00:29:52;;;;;;;;;;;;;;;9.94;93.17;100784.84;1438713;91;20312;-77
2022/10/09 00:32:19;;;;;;;;;;;;;;;9.93;93.20;100784.49;1441095;91;20334;-77
2022/10/09 00:34:46;;;;;;;;;;;;;;;9.93;92.45;100785.81;1439406;91;20804;-77
2022/10/09 00:37:13;;;;;;;;;;;;;;;9.95;92.87;100789.63;1438923;90;20334;-77
2022/10/09 00:39:40;;;;;;;;;;;;;;;9.94;93.12;100780.87;1440708;91;20612;-77
2022/10/09 00:42:12;;;;;;;;;;;;;;;9.92;93.65;100781.48;1438903;90;20510;-76
2022/10/09 00:44:58;;;;;;;;;;;;;;;9.94;92.99;100778.22;1420810;90;20955;-77
2022/10/09 00:47:32;;;;;;;;;;;;;;;9.96;92.45;100781.23;1440664;91;21013;-78
2022/10/09 00:50:05;;;;;;;;;;;;;;;9.92;92.72;100782.80;1426121;90;20964;-77
2022/10/09 00:52:32;;;;;;;;;;;;;;;9.92;92.61;100783.30;1435266;90;20595;-77
2022/10/09 00:55:00;;;;;;;;;;;;;;;9.91;92.14;100785.59;1437520;91;20380;-77
2022/10/09 00:57:27;;;;;;;;;;;;;;;9.88;92.82;100781.90;1420671;92;20443;-76
2022/10/09 00:59:54;;;;;;;;;;;;;;;9.82;93.57;100784.59;1414837;92;20387;-79
2022/10/09 01:02:21;;;;;;;;;;;;;;;9.79;92.96;100786.67;1435736;91;20392;-76
2022/10/09 01:04:48;;;;;;;;;;;;;;;9.76;92.90;100789.09;1467476;89;20284;-78
2022/10/09 01:07:28;;;;;;;;;;;;;;;9.76;93.13;100785.63;1460893;89;20233;-78
2022/10/09 01:10:10;;;;;;;;;;;;;;;9.74;92.62;100791.52;1446997;89;20362;-77
2022/10/09 01:12:46;;;;;;;;;;;;;;;9.71;92.47;100792.63;1433218;90;20859;-78
2022/10/09 01:15:28;;;;;;;;;;;;;;;9.70;92.66;100794.92;1457183;89;20428;-78
2022/10/09 01:18:08;;;;;;;;;;;;;;;9.68;92.74;100795.53;1458827;89;20410;-78
2022/10/09 01:20:38;;;;;;;;;;;;;;;9.66;92.32;100795.65;1435275;89;20347;-78
2022/10/09 01:23:09;;;;;;;;;;;;;;;9.65;92.45;100790.02;1436939;91;20294;-78
2022/10/09 01:26:06;;;;;;;;;;;;;;;9.65;92.50;100787.87;1437860;90;20250;-78
2022/10/09 01:28:33;;;;;;;;;;;;;;;9.68;92.16;100789.75;1432582;91;20279;-79
2022/10/09 01:31:02;;;;;;;;;;;;;;;9.69;92.05;100786.63;1413949;92;20831;-78
2022/10/09 01:33:30;;;;;;;;;;;;;;;9.67;91.63;100779.33;1436658;91;20893;-78
2022/10/09 01:35:58;;;;;;;;;;;;;;;9.69;91.99;100781.33;1436129;91;21314;-78
2022/10/09 01:38:27;;;;;;;;;;;;;;;9.69;91.82;100787.94;1442099;91;20925;-79
2022/10/09 01:40:54;;;;;;;;;;;;;;;9.68;91.80;100791.56;1421582;91;20901;-78
2022/10/09 01:43:20;;;;;;;;;;;;;;;9.66;92.11;100792.17;1439203;89;20295;-77
2022/10/09 01:45:48;;;;;;;;;;;;;;;9.68;92.01;100794.20;1447842;89;20344;-78
2022/10/09 01:48:21;;;;;;;;;;;;;;;9.69;91.99;100794.55;1440215;89;20291;-78
2022/10/09 01:50:52;;;;;;;;;;;;;;;9.68;92.02;100795.53;1442867;89;20429;-77
2022/10/09 01:53:20;;;;;;;;;;;;;;;9.66;91.57;100789.53;1442103;89;20661;-79
2022/10/09 01:56:05;;;;;;;;;;;;;;;9.66;91.26;100785.56;1455955;89;20633;-77
2022/10/09 01:58:37;;;;;;;;;;;;;;;9.65;91.57;100795.80;1408461;92;20426;-78
2022/10/09 02:01:19;;;;;;;;;;;;;;;9.59;93.14;100801.61;1430485;90;20346;-77
2022/10/09 02:03:49;;;;;;;;;;;;;;;9.52;93.55;100800.45;1463589;89;20360;-77
2022/10/09 02:06:18;;;;;;;;;;;;;;;9.45;94.13;100806.27;1452595;89;20410;-77
2022/10/09 02:08:47;;;;;;;;;;;;;;;9.26;94.42;100803.50;1438139;91;20302;-78
2022/10/09 02:11:14;;;;;;;;;;;;;;;9.15;93.51;100808.86;1439547;90;21116;-76
2022/10/09 02:13:42;;;;;;;;;;;;;;;9.08;93.39;100809.03;1438760;90;20316;-76
2022/10/09 02:16:32;;;;;;;;;;;;;;;9.10;93.97;100805.78;1426703;90;20318;-77
2022/10/09 02:19:11;;;;;;;;;;;;;;;9.12;94.49;100803.83;1466973;89;20886;-77
2022/10/09 02:21:52;;;;;;;;;;;;;;;9.08;96.69;100809.03;1457236;89;20835;-77
2022/10/09 02:24:20;;;;;;;;;;;;;;;9.04;95.96;100818.53;1458062;89;20433;-78
2022/10/09 02:26:47;;;;;;;;;;;;;;;9.02;96.53;100824.41;1422941;89;20244;-78
2022/10/09 02:29:15;;;;;;;;;;;;;;;8.99;96.42;100833.91;1426417;91;20324;-78
2022/10/09 02:31:43;;;;;;;;;;;;;;;8.93;97.53;100834.42;1459846;89;20426;-78
2022/10/09 02:34:12;;;;;;;;;;;;;;;8.93;97.59;100830.95;1437317;91;20414;-78
2022/10/09 02:36:39;;;;;;;;;;;;;;;8.95;97.19;100832.50;1421107;92;21265;-78
2022/10/09 02:39:06;;;;;;;;;;;;;;;9.01;96.57;100833.31;1438757;91;20406;-78
2022/10/09 02:41:34;;;;;;;;;;;;;;;9.03;97.62;100837.98;1437199;91;20428;-78
2022/10/09 02:44:01;;;;;;;;;;;;;;;9.07;97.00;100849.61;1435624;91;20331;-78
2022/10/09 02:46:28;;;;;;;;;;;;;;;9.10;96.85;100848.87;1435967;91;20318;-78
2022/10/09 02:48:55;;;;;;;;;;;;;;;9.14;96.58;100843.67;1437410;91;20853;-78
2022/10/09 02:51:22;;;;;;;;;;;;;;;9.20;96.10;100835.23;1442288;91;20310;-77
2022/10/09 02:53:52;;;;;;;;;;;;;;;9.25;96.18;100850.22;1449247;91;20287;-78
2022/10/09 02:56:20;;;;;;;;;;;;;;;9.25;96.03;100846.25;1435659;91;20302;-78
2022/10/09 02:58:47;;;;;;;;;;;;;;;9.29;95.83;100844.67;1435954;91;20383;-78
2022/10/09 03:01:14;;;;;;;;;;;;;;;9.32;95.74;100837.81;1430628;91;20331;-78
2022/10/09 03:03:41;;;;;;;;;;;;;;;9.33;95.87;100840.83;1432206;91;20324;-77
2022/10/09 03:06:11;;;;;;;;;;;;;;;9.32;95.48;100833.39;1433901;91;21038;-78
2022/10/09 03:08:41;;;;;;;;;;;;;;;9.35;95.46;100831.81;1438991;91;20309;-78
2022/10/09 03:11:08;;;;;;;;;;;;;;;9.37;95.28;100831.17;1444595;91;20883;-78
2022/10/09 03:13:35;;;;;;;;;;;;;;;9.40;95.00;100828.76;1422257;92;20238;-77
2022/10/09 03:16:05;;;;;;;;;;;;;;;9.38;95.61;100837.29;1435167;91;20295;-78
2022/10/09 03:18:32;;;;;;;;;;;;;;;9.31;96.66;100850.19;1421837;92;20410;-78
2022/10/09 03:20:59;;;;;;;;;;;;;;;9.31;95.77;100854.64;1430025;90;20317;-77
2022/10/09 03:23:26;;;;;;;;;;;;;;;9.33;95.81;100847.43;1457146;89;21050;-77
2022/10/09 03:25:57;;;;;;;;;;;;;;;9.36;96.44;100848.00;1429945;89;20394;-78
2022/10/09 03:28:25;;;;;;;;;;;;;;;9.37;96.54;100842.23;1427843;92;20324;-78
2022/10/09 03:30:52;;;;;;;;;;;;;;;9.36;97.06;100849.33;1424646;91;20325;-78
2022/10/09 03:33:19;;;;;;;;;;;;;;;9.37;96.08;100847.02;1436479;91;20317;-77
2022/10/09 03:35:47;;;;;;;;;;;;;;;9.40;96.18;100838.84;1429036;91;20325;-78
2022/10/09 03:38:15;;;;;;;;;;;;;;;9.43;96.12;100843.86;1430329;91;20251;-78
2022/10/09 03:40:42;;;;;;;;;;;;;;;9.45;96.23;100838.45;1431599;91;20310;-77
2022/10/09 03:43:09;;;;;;;;;;;;;;;9.48;95.52;100836.39;1418208;91;20378;-78
2022/10/09 03:45:39;;;;;;;;;;;;;;;9.53;95.01;100837.81;1399650;92;20401;-77
2022/10/09 03:48:08;;;;;;;;;;;;;;;9.53;95.56;100833.86;1407676;92;20269;-78
2022/10/09 03:50:36;;;;;;;;;;;;;;;9.49;95.82;100840.72;1416415;92;20832;-79
2022/10/09 03:53:04;;;;;;;;;;;;;;;9.43;97.69;100846.98;1419400;92;20840;-78
2022/10/09 03:55:31;;;;;;;;;;;;;;;9.42;96.82;100847.48;1413843;92;20768;-79
2022/10/09 03:57:58;;;;;;;;;;;;;;;9.51;97.08;100848.99;1433426;91;20339;-79
2022/10/09 04:00:25;;;;;;;;;;;;;;;9.53;98.25;100851.86;1433064;91;20354;-79
2022/10/09 04:02:52;;;;;;;;;;;;;;;9.57;98.51;100856.39;1416748;92;20356;-78
2022/10/09 04:05:19;;;;;;;;;;;;;;;9.63;97.54;100854.55;1457911;89;20248;-79
2022/10/09 04:07:46;;;;;;;;;;;;;;;9.66;96.97;100847.67;1468077;87;20402;-79
2022/10/09 04:10:13;;;;;;;;;;;;;;;9.68;97.89;100851.86;1467449;89;20404;-78
2022/10/09 04:12:40;;;;;;;;;;;;;;;9.70;97.63;100845.14;1434593;90;20455;-78
2022/10/09 04:15:08;;;;;;;;;;;;;;;9.73;96.72;100849.33;1445947;90;20400;-78
2022/10/09 04:17:35;;;;;;;;;;;;;;;9.73;96.55;100855.45;1447518;91;20303;-77
2022/10/09 04:20:02;;;;;;;;;;;;;;;9.68;97.04;100864.25;1430318;91;20251;-77
2022/10/09 04:22:29;;;;;;;;;;;;;;;9.61;97.54;100869.69;1440370;91;20316;-78
2022/10/09 04:24:56;;;;;;;;;;;;;;;9.57;96.47;100868.28;1473584;89;20284;-77
2022/10/09 04:27:23;;;;;;;;;;;;;;;9.52;97.28;100871.80;1432411;89;20241;-77
2022/10/09 04:29:50;;;;;;;;;;;;;;;9.48;97.15;100874.70;1462475;89;20331;-78
2022/10/09 04:32:17;;;;;;;;;;;;;;;9.43;98.24;100874.24;1454523;89;20309;-77
2022/10/09 04:34:43;;;;;;;;;;;;;;;9.44;97.67;100879.90;1435726;90;20294;-78
2022/10/09 04:37:10;;;;;;;;;;;;;;;9.46;98.24;100878.43;1458508;89;20321;-76
2022/10/09 04:39:37;;;;;;;;;;;;;;;9.47;99.17;100878.80;1458036;89;20225;-77
2022/10/09 04:42:05;;;;;;;;;;;;;;;9.47;98.70;100892.84;1438599;90;20258;-78
2022/10/09 04:44:32;;;;;;;;;;;;;;;9.47;99.35;100892.84;1440280;90;20370;-78
2022/10/09 04:46:58;;;;;;;;;;;;;;;9.49;99.26;100893.56;1437980;91;20295;-77
2022/10/09 04:49:25;;;;;;;;;;;;;;;9.51;98.06;100891.27;1440528;90;20295;-76
2022/10/09 04:51:52;;;;;;;;;;;;;;;9.53;97.35;100898.10;1448066;90;20428;-77
2022/10/09 04:54:19;;;;;;;;;;;;;;;9.54;97.28;100896.29;1430346;90;20452;-78
2022/10/09 04:56:46;;;;;;;;;;;;;;;9.53;96.97;100906.03;1430694;90;20318;-77
2022/10/09 04:59:13;;;;;;;;;;;;;;;9.55;96.77;100909.84;1464935;89;20380;-78
2022/10/09 05:01:40;;;;;;;;;;;;;;;9.56;96.31;100904.94;1428649;90;20303;-77
2022/10/09 05:04:07;;;;;;;;;;;;;;;9.57;96.19;100911.40;1439638;90;20836;-78
2022/10/09 05:06:34;;;;;;;;;;;;;;;9.59;96.32;100909.96;1420435;90;20406;-78
2022/10/09 05:09:01;;;;;;;;;;;;;;;9.62;96.31;100909.21;1471980;89;20277;-77
2022/10/09 05:11:27;;;;;;;;;;;;;;;9.67;96.32;100913.62;1441280;90;20293;-78
2022/10/09 05:13:56;;;;;;;;;;;;;;;9.70;96.00;100920.47;1436754;90;20302;-78
2022/10/09 05:16:27;;;;;;;;;;;;;;;9.72;96.15;100921.16;1446107;90;20553;-78
2022/10/09 05:18:56;;;;;;;;;;;;;;;9.75;95.92;100920.06;1420819;91;20310;-79
2022/10/09 05:21:24;;;;;;;;;;;;;;;9.79;96.57;100932.90;1434121;90;20295;-78
2022/10/09 05:23:53;;;;;;;;;;;;;;;9.88;96.74;100931.28;1435979;91;20376;-78
2022/10/09 05:26:21;;;;;;;;;;;;;;;9.96;96.72;100930.14;1428834;90;20297;-79
2022/10/09 05:28:49;;;;;;;;;;;;;;;10.08;96.64;100932.22;1430651;90;20309;-80
2022/10/09 05:31:24;;;;;;;;;;;;;;;10.19;96.44;100936.09;1445514;89;20307;-80
2022/10/09 05:33:52;;;;;;;;;;;;;;;10.29;96.39;100939.64;1458850;89;20252;-79
2022/10/09 05:36:19;;;;;;;;;;;;;;;10.38;97.14;100941.97;1425023;90;20244;-79
2022/10/09 05:38:46;;;;;;;;;;;;;;;10.46;96.50;100940.81;1425718;91;20269;-80
2022/10/09 05:41:15;;;;;;;;;;;;;;;10.54;96.84;100948.09;1429924;90;20324;-80
2022/10/09 05:43:44;;;;;;;;;;;;;;;10.58;97.39;100949.00;1465695;89;21051;-79
2022/10/09 05:46:18;;;;;;;;;;;;;;;10.61;97.05;100955.83;1439750;90;20384;-80
2022/10/09 05:48:47;;;;;;;;;;;;;;;10.68;96.86;100951.69;1441479;91;20442;-80
2022/10/09 05:51:17;;;;;;;;;;;;;;;10.77;97.69;100952.19;1439904;91;20310;-80
2022/10/09 05:53:45;;;;;;;;;;;;;;;10.87;96.97;100960.63;1450633;91;20271;-80
2022/10/09 05:56:21;;;;;;;;;;;;;;;10.95;97.34;100962.12;1426849;90;20242;-80
2022/10/09 05:58:53;;;;;;;;;;;;;;;11.02;98.67;100968.56;1420189;92;20302;-80
2022/10/09 06:01:22;;;;;;;;;;;;;;;11.12;98.28;100973.86;1457334;89;20865;-81
2022/10/09 06:03:50;;;;;;;;;;;;;;;11.20;98.80;100981.47;1451888;89;20417;-79
2022/10/09 06:06:19;;;;;;;;;;;;;;;11.24;99.08;100985.99;1450694;89;20375;-80
2022/10/09 06:08:46;;;;;;;;;;;;;;;11.32;98.50;100991.44;1435573;90;20287;-79
2022/10/09 06:11:19;;;;;;;;;;;;;;;11.42;98.64;100996.27;1418914;91;20266;-78
2022/10/09 06:13:46;;;;;;;;;;;;;;;11.53;98.45;100999.25;1445068;89;20382;-79
2022/10/09 06:16:14;;;;;;;;;;;;;;;11.62;98.21;100990.94;1452040;89;20285;-78
2022/10/09 06:18:45;;;;;;;;;;;;;;;11.71;98.59;101003.38;1440850;89;20270;-83
2022/10/09 06:21:12;;;;;;;;;;;;;;;11.81;98.59;100992.75;1441564;90;20398;-82
2022/10/09 06:23:39;;;;;;;;;;;;;;;11.89;98.21;100995.56;1460414;90;20285;-82
2022/10/09 06:26:09;;;;;;;;;;;;;;;11.98;98.11;100996.53;1444079;89;20376;-82
2022/10/09 06:28:36;;;;;;;;;;;;;;;12.00;99.15;101003.37;1442058;90;20286;-82
2022/10/09 06:31:10;;;;;;;;;;;;;;;11.98;99.74;101011.13;1442586;91;20620;-80
2022/10/09 06:33:39;;;;;;;;;;;;;;;12.05;98.09;101016.19;1442918;91;20376;-79
2022/10/09 06:36:12;;;;;;;;;;;;;;;12.11;98.16;101016.94;1441026;91;20309;-79
2022/10/09 06:38:39;;;;;;;;;;;;;;;12.22;97.79;101022.58;1442240;91;20406;-79
2022/10/09 06:41:08;;;;;;;;;;;;;;;12.31;97.48;101026.52;1443530;91;20904;-80
2022/10/09 06:43:36;;;;;;;;;;;;;;;12.39;97.33;101033.77;1444202;91;20827;-80
2022/10/09 06:46:04;;;;;;;;;;;;;;;12.44;96.51;101047.45;1437393;91;20958;-80
2022/10/09 06:48:33;;;;;;;;;;;;;;;12.51;96.48;101043.72;1446542;91;20402;-80
2022/10/09 06:51:06;;;;;;;;;;;;;;;12.52;96.43;101050.72;1433050;90;20399;-80
2022/10/09 06:53:40;;;;;;;;;;;;;;;12.55;95.96;101052.59;1439406;91;21150;-81
2022/10/09 06:56:07;;;;;;;;;;;;;;;12.54;95.92;101056.20;1429154;91;20243;-81
2022/10/09 06:58:35;;;;;;;;;;;;;;;12.48;96.74;101056.79;1440259;91;20461;-80
2022/10/09 07:01:05;;;;;;;;;;;;;;;12.49;96.15;101057.66;1429140;90;20376;-84
2022/10/09 07:03:33;;;;;;;;;;;;;;;12.47;96.45;101064.42;1434032;90;20438;-82
2022/10/09 07:06:10;;;;;;;;;;;;;;;12.53;97.51;101062.52;1430424;90;20324;-83
2022/10/09 07:08:38;;;;;;;;;;;;;;;12.73;98.32;101068.59;1427453;91;21098;-82
2022/10/09 07:11:15;;;;;;;;;;;;;;;12.97;98.62;101057.92;1424673;90;20384;-83
2022/10/09 07:13:43;;;;;;;;;;;;;;;13.19;99.30;101058.02;1430109;91;20354;-82
2022/10/09 07:16:10;;;;;;;;;;;;;;;13.37;98.69;101049.59;1402547;90;21046;-83
2022/10/09 07:18:37;;;;;;;;;;;;;;;13.51;95.81;101049.08;1428974;91;20422;-84
2022/10/09 07:21:06;;;;;;;;;;;;;;;13.67;93.48;101051.56;1434794;90;20399;-84
2022/10/09 07:23:34;;;;;;;;;;;;;;;13.86;93.17;101048.72;1425435;91;20378;-83
2022/10/09 07:26:03;;;;;;;;;;;;;;;14.00;90.18;101047.33;1427898;91;20273;-81
2022/10/09 07:28:30;;;;;;;;;;;;;;;14.16;87.24;101043.47;1432560;91;20309;-83
2022/10/09 07:30:59;;;;;;;;;;;;;;;14.47;87.24;101045.63;1432076;91;20301;-82
2022/10/09 07:33:25;;;;;;;;;;;;;;;14.66;83.55;101044.61;1432115;91;20371;-83
2022/10/09 07:35:57;;;;;;;;;;;;;;;14.77;82.59;101044.34;1431120;90;20899;-83
2022/10/09 07:38:25;;;;;;;;;;;;;;;14.78;81.23;101047.33;1437898;91;20516;-81
2022/10/09 07:40:53;;;;;;;;;;;;;;;14.85;82.01;101051.03;1429619;90;20333;-83
2022/10/09 07:43:21;;;;;;;;;;;;;;;14.95;81.84;101053.56;1441609;90;20287;-80
2022/10/09 07:45:48;;;;;;;;;;;;;;;14.95;79.12;101057.56;1425868;91;20378;-83
2022/10/09 07:48:16;;;;;;;;;;;;;;;14.93;78.33;101058.71;1356316;91;20245;-82
2022/10/09 07:50:43;;;;;;;;;;;;;;;14.98;78.71;101061.74;1367482;91;20252;-83
2022/10/09 07:53:10;;;;;;;;;;;;;;;14.96;78.60;101066.39;1360915;91;20243;-82
2022/10/09 07:55:38;;;;;;;;;;;;;;;14.98;78.75;101065.73;1356043;91;20243;-83
2022/10/09 07:58:05;;;;;;;;;;;;;;;14.88;78.14;101060.05;1420019;90;20624;-84
2022/10/09 08:00:32;;;;;;;;;;;;;;;14.81;78.05;101068.83;1433371;91;20287;-84
2022/10/09 08:02:59;;;;;;;;;;;;;;;14.95;79.28;101068.73;1422920;91;20480;-83
2022/10/09 08:05:26;;;;;;;;;;;;;;;15.14;80.25;101071.64;1435070;91;20372;-85
2022/10/09 08:07:52;;;;;;;;;;;;;;;15.32;79.15;101073.18;1429097;90;20375;-79
2022/10/09 08:10:19;;;;;;;;;;;;;;;15.53;78.51;101070.05;1425501;91;20286;-82
2022/10/09 08:12:56;;;;;;;;;;;;;;;15.66;73.25;101072.25;1424287;91;20579;-81
2022/10/09 08:15:22;;;;;;;;;;;;;;;15.76;72.99;101086.28;1430704;91;20350;-84
2022/10/09 08:17:52;;;;;;;;;;;;;;;15.89;73.02;101087.14;1433206;91;20401;-83
2022/10/09 08:20:19;;;;;;;;;;;;;;;16.06;71.30;101090.66;1431242;90;20482;-81
2022/10/09 08:22:46;;;;;;;;;;;;;;;16.17;69.42;101088.98;1434142;91;20428;-83
2022/10/09 08:25:13;;;;;;;;;;;;;;;16.27;68.55;101094.14;1429393;91;20400;-84
2022/10/09 08:27:40;;;;;;;;;;;;;;;16.39;66.80;101093.28;1435472;90;20340;-82
2022/10/09 08:30:10;;;;;;;;;;;;;;;16.29;61.84;101099.33;1427408;91;20334;-84
2022/10/09 08:32:39;;;;;;;;;;;;;;;16.22;61.93;101094.63;1435850;91;20317;-84
2022/10/09 08:35:06;;;;;;;;;;;;;;;16.22;61.84;101095.97;1430316;90;20330;-83
2022/10/09 08:37:33;;;;;;;;;;;;;;;16.22;63.11;101096.47;1433263;91;20379;-82
2022/10/09 08:40:01;;;;;;;;;;;;;;;16.37;62.67;101101.95;1428448;90;20503;-84
2022/10/09 08:42:34;;;;;;;;;;;;;;;16.34;62.41;101102.30;1425703;91;20360;-82
2022/10/09 08:45:02;;;;;;;;;;;;;;;16.42;63.50;101110.31;1433943;91;20978;-83
2022/10/09 08:47:39;;;;;;;;;;;;;;;16.52;62.91;101109.64;1429663;91;20289;-85
2022/10/09 08:50:15;;;;;;;;;;;;;;;16.75;63.04;101113.77;1429733;90;20323;-83
2022/10/09 08:53:04;;;;;;;;;;;;;;;16.98;62.32;101109.88;1433431;90;20407;-85
2022/10/09 08:55:45;;;;;;;;;;;;;;;17.09;59.00;101108.16;1431516;91;20287;-83
2022/10/09 08:58:18;;;;;;;;;;;;;;;17.29;60.13;101108.58;1434537;90;20327;-86
2022/10/09 09:00:54;;;;;;;;;;;;;;;17.24;58.50;101118.13;1434833;90;20308;-84
2022/10/09 09:03:40;;;;;;;;;;;;;;;17.13;59.03;101113.48;1435436;90;20435;-86
2022/10/09 09:06:25;;;;;;;;;;;;;;;17.06;58.73;101125.89;1436012;91;20398;-85
2022/10/09 09:09:01;;;;;;;;;;;;;;;16.86;59.08;101125.94;1428248;91;20404;-84
2022/10/09 09:11:44;;;;;;;;;;;;;;;16.99;59.59;101122.23;1434416;90;20301;-90
2022/10/09 09:14:26;;;;;;;;;;;;;;;17.46;58.68;101122.67;1434633;91;21111;-88
2022/10/09 09:17:06;;;;;;;;;;;;;;;17.85;58.11;101126.33;1432249;91;20258;-90
2022/10/09 09:19:55;;;;;;;;;;;;;;;18.23;55.87;101122.66;1431749;91;20871;-89
2022/10/09 09:22:23;;;;;;;;;;;;;;;18.37;55.02;101131.75;1430981;91;20316;-87
2022/10/09 09:24:55;;;;;;;;;;;;;;;18.72;53.98;101136.94;1435041;91;20427;-88
2022/10/09 09:27:28;;;;;;;;;;;;;;;19.10;52.67;101132.02;1432960;91;20728;-89
2022/10/09 09:30:02;;;;;;;;;;;;;;;19.06;53.06;101136.93;1432685;90;20354;-89
2022/10/09 09:32:30;;;;;;;;;;;;;;;19.28;52.02;101147.75;1425986;91;21175;-86
2022/10/09 09:35:22;;;;;;;;;;;;;;;19.75;51.12;101138.40;1426191;90;20310;-87
2022/10/09 09:37:48;;;;;;;;;;;;;;;19.71;49.96;101148.70;1400753;91;20297;-89
2022/10/09 09:40:16;;;;;;;;;;;;;;;20.06;50.36;101162.27;1448686;89;20368;-89
2022/10/09 09:42:44;;;;;;;;;;;;;;;19.90;50.46;101158.48;1439872;90;20301;-88
2022/10/09 09:45:17;;;;;;;;;;;;;;;19.70;50.00;101153.73;1388123;92;20318;-88
2022/10/09 09:47:54;;;;;;;;;;;;;;;18.99;51.19;101160.64;1437628;89;20292;-91
2022/10/09 09:50:28;;;;;;;;;;;;;;;18.88;50.76;101160.11;1423934;89;20411;-87
2022/10/09 09:52:56;;;;;;;;;;;;;;;19.47;50.35;101146.31;1438214;91;20473;-91
2022/10/09 09:55:26;;;;;;;;;;;;;;;19.67;49.71;101150.08;1425011;91;20389;-90
2022/10/09 09:57:59;;;;;;;;;;;;;;;19.14;48.95;101155.61;1417073;92;20400;-88
2022/10/09 10:00:26;;;;;;;;;;;;;;;19.29;49.20;101157.45;1419376;92;20319;-92
2022/10/09 10:03:11;;;;;;;;;;;;;;;19.28;48.33;101153.94;1415388;92;20534;-88
2022/10/09 10:05:39;;;;;;;;;;;;;;;19.24;47.41;101162.02;1420473;92;20364;-85
2022/10/09 10:08:31;;;;;;;;;;;;;;;18.92;47.91;101161.91;1419561;92;20444;-88
2022/10/09 10:10:59;;;;;;;;;;;;;;;19.09;48.75;101154.50;1456175;90;20307;-89
2022/10/09 10:13:38;;;;;;;;;;;;;;;19.51;48.85;101159.18;1384839;90;20353;-87
2022/10/09 10:16:07;;;;;;;;;;;;;;;19.81;48.78;101157.26;1526868;90;20279;-89
2022/10/09 10:18:40;;;;;;;;;;;;;;;19.34;47.71;101155.87;1439745;90;20880;-88
2022/10/09 10:21:13;;;;;;;;;;;;;;;19.12;48.35;101154.95;1453529;90;20270;-87
2022/10/09 10:23:46;;;;;;;;;;;;;;;19.18;48.40;101157.92;1459052;90;20307;-88
2022/10/09 10:26:35;;;;;;;;;;;;;;;19.25;48.71;101161.51;1442334;90;20422;-87
2022/10/09 10:29:07;;;;;;;;;;;;;;;18.92;48.82;101162.73;1443932;90;20309;-87
2022/10/09 10:31:58;;;;;;;;;;;;;;;18.91;49.64;101166.44;1449256;89;20397;-87
2022/10/09 10:34:41;;;;;;;;;;;;;;;18.51;50.01;101170.84;1440040;90;20413;-89
2022/10/09 10:37:30;;;;;;;;;;;;;;;18.14;50.34;101172.48;1447914;90;21093;-87
2022/10/09 10:40:13;;;;;;;;;;;;;;;17.91;51.94;101170.62;1436299;90;20339;-88
2022/10/09 10:42:59;;;;;;;;;;;;;;;17.90;52.47;101176.18;1452253;90;20277;-89
2022/10/09 10:45:29;;;;;;;;;;;;;;;17.50;51.36;101170.84;1430824;91;20274;-87
2022/10/09 10:47:58;;;;;;;;;;;;;;;17.75;52.13;101169.35;1425614;91;20266;-86
2022/10/09 10:50:29;;;;;;;;;;;;;;;18.00;51.31;101170.89;1426690;91;20304;-86
2022/10/09 10:53:12;;;;;;;;;;;;;;;18.05;51.14;101165.02;1424858;91;20308;-87
2022/10/09 10:55:46;;;;;;;;;;;;;;;18.52;51.64;101166.63;1413404;92;20885;-87
2022/10/09 10:58:26;;;;;;;;;;;;;;;18.97;50.99;101170.75;1449918;90;20369;-86
2022/10/09 11:01:02;;;;;;;;;;;;;;;19.05;48.22;101166.64;1438550;90;20368;-87
2022/10/09 11:03:33;;;;;;;;;;;;;;;19.06;47.71;101177.69;1443403;90;20320;-85
2022/10/09 11:06:12;;;;;;;;;;;;;;;19.05;46.60;101163.95;1418995;91;20406;-89
2022/10/09 11:09:02;;;;;;;;;;;;;;;19.36;46.74;101156.53;1427249;90;20766;-90
2022/10/09 11:11:32;;;;;;;;;;;;;;;19.60;47.04;101159.90;1422051;89;20854;-90
2022/10/09 11:14:15;;;;;;;;;;;;;;;19.45;47.91;101151.88;1443117;90;20280;-91
2022/10/09 11:17:04;;;;;;;;;;;;;;;19.41;45.36;101153.78;1392092;93;20291;-90
2022/10/09 11:19:52;;;;;;;;;;;;;;;19.54;45.56;101148.58;1429538;91;21006;-90
2022/10/09 11:22:28;;;;;;;;;;;;;;;19.60;45.48;101158.55;1439682;90;20287;-88
2022/10/09 11:25:05;;;;;;;;;;;;;;;19.05;44.58;101154.56;1437628;90;20228;-90
2022/10/09 11:27:53;;;;;;;;;;;;;;;18.77;45.58;101156.53;1411448;91;20321;-90
2022/10/09 11:30:19;;;;;;;;;;;;;;;18.95;45.40;101145.44;1416551;92;20424;-92
2022/10/09 11:33:11;;;;;;;;;;;;;;;19.33;45.45;101146.17;1411471;92;20938;-90
2022/10/09 11:35:45;;;;;;;;;;;;;;;19.59;46.05;101143.45;1438743;90;20321;-90
2022/10/09 11:38:31;;;;;;;;;;;;;;;19.56;44.99;101155.42;1449156;90;20387;-89
2022/10/09 11:40:58;;;;;;;;;;;;;;;19.06;44.84;101150.34;1442555;90;20981;-91
2022/10/09 11:43:29;;;;;;;;;;;;;;;18.67;46.34;101149.22;1436139;89;20345;-90
2022/10/09 11:46:02;;;;;;;;;;;;;;;19.06;45.58;101149.52;1436178;91;20302;-87
2022/10/09 11:48:51;;;;;;;;;;;;;;;18.80;44.91;101158.02;1453927;89;20321;-89
2022/10/09 11:51:30;;;;;;;;;;;;;;;18.49;45.20;101156.27;1453115;89;20372;-89
2022/10/09 11:53:57;;;;;;;;;;;;;;;18.17;45.56;101149.35;1440874;89;20423;-91
2022/10/09 11:56:27;;;;;;;;;;;;;;;18.15;45.99;101144.67;1424186;91;20786;-87
2022/10/09 11:59:06;;;;;;;;;;;;;;;18.74;45.63;101151.55;1428646;91;20415;-87
2022/10/09 12:01:36;;;;;;;;;;;;;;;18.96;44.53;101149.80;1426089;91;20451;-87
2022/10/09 12:04:12;;;;;;;;;;;;;;;19.35;43.97;101153.50;1438335;90;20424;-90
2022/10/09 12:06:48;;;;;;;;;;;;;;;19.48;42.56;101149.30;1440481;90;20787;-94
2022/10/09 12:09:22;;;;;;;;;;;;;;;19.52;42.40;101148.75;1439262;90;21062;-90
2022/10/09 12:12:05;;;;;;;;;;;;;;;19.86;42.42;101143.78;1436558;90;20456;-90
2022/10/09 12:14:30;;;;;;;;;;;;;;;19.95;40.99;101150.17;1434209;91;20941;-93
2022/10/09 12:16:58;;;;;;;;;;;;;;;20.14;41.50;101146.02;1421705;90;20317;-91
2022/10/09 12:19:32;;;;;;;;;;;;;;;19.88;40.92;101143.06;1438310;89;20304;-94
2022/10/09 12:22:05;;;;;;;;;;;;;;;19.83;40.96;101143.66;1421721;91;20487;-94
2022/10/09 12:24:39;;;;;;;;;;;;;;;19.84;41.75;101140.76;1417164;91;20333;-89
2022/10/09 12:27:06;;;;;;;;;;;;;;;19.88;40.09;101144.41;1540981;89;20806;-92
2022/10/09 12:29:37;;;;;;;;;;;;;;;19.98;40.78;101146.27;1371400;91;20348;-93
2022/10/09 12:32:07;;;;;;;;;;;;;;;20.04;40.26;101145.50;1422867;92;20411;-91
2022/10/09 12:34:44;;;;;;;;;;;;;;;19.87;40.43;101144.09;1423314;90;20447;-93
2022/10/09 12:37:14;;;;;;;;;;;;;;;20.02;40.62;101140.34;1443625;90;20343;-91
2022/10/09 12:39:41;;;;;;;;;;;;;;;20.07;39.69;101139.74;1440692;90;20901;-92
2022/10/09 12:42:17;;;;;;;;;;;;;;;20.40;40.11;101152.63;1436121;89;20261;-90
2022/10/09 12:44:45;;;;;;;;;;;;;;;20.51;39.86;101148.06;1450597;89;20856;-93
2022/10/09 12:47:22;;;;;;;;;;;;;;;20.56;39.88;101152.37;1459231;89;20329;-90
2022/10/09 12:50:03;;;;;;;;;;;;;;;20.98;39.85;101153.80;1452361;89;20554;-90
2022/10/09 12:52:31;;;;;;;;;;;;;;;21.37;38.90;101148.61;1459997;89;20422;-89
2022/10/09 12:55:02;;;;;;;;;;;;;;;21.67;37.91;101147.49;1455488;89;20377;-90
2022/10/09 12:57:29;;;;;;;;;;;;;;;21.70;38.15;101141.70;1433104;89;20286;-88
2022/10/09 12:59:56;;;;;;;;;;;;;;;21.58;37.35;101149.02;1439618;90;20309;-90